sensor_id;sensor_type;location;lat;lon;timestamp;P1;durP1;ratioP1;P2;durP2;ratioP2
9924;SDS011;5001;51.674;7.868;2023-02-28T00:01:34;19.97;;;5.23;;
9924;SDS011;5001;51.674;7.868;2023-02-28T00:04:01;6.60;;;2.47;;
9924;SDS011;5001;51.674;7.868;2023-02-28T00:06:29;13.03;;;3.83;;
9924;SDS011;5001;51.674;7.868;2023-02-28T00:08:56;28.13;;;6.57;;
9924;SDS011;5001;51.674;7.868;2023-02-28T00:11:25;10.97;;;3.40;;
9924;SDS011;5001;51.674;7.868;2023-02-28T00:13:55;25.43;;;5.67;;
9924;SDS011;5001;51.674;7.868;2023-02-28T00:16:24;22.73;;;5.20;;
9924;SDS011;5001;51.674;7.868;2023-02-28T00:18:51;16.80;;;5.50;;
9924;SDS011;5001;51.674;7.868;2023-02-28T00:21:21;10.77;;;2.80;;
9924;SDS011;5001;51.674;7.868;2023-02-28T00:23:53;2.80;;;2.30;;
9924;SDS011;5001;51.674;7.868;2023-02-28T00:26:20;5.73;;;2.40;;
9924;SDS011;5001;51.674;7.868;2023-02-28T00:28:48;2.60;;;2.03;;
9924;SDS011;5001;51.674;7.868;2023-02-28T00:31:15;3.63;;;1.60;;
9924;SDS011;5001;51.674;7.868;2023-02-28T00:33:45;49.30;;;11.57;;
9924;SDS011;5001;51.674;7.868;2023-02-28T00:36:22;111.03;;;25.10;;
9924;SDS011;5001;51.674;7.868;2023-02-28T00:38:50;172.90;;;34.43;;
9924;SDS011;5001;51.674;7.868;2023-02-28T00:41:17;211.97;;;42.83;;
9924;SDS011;5001;51.674;7.868;2023-02-28T00:43:46;72.63;;;18.30;;
9924;SDS011;5001;51.674;7.868;2023-02-28T00:46:13;61.03;;;14.87;;
9924;SDS011;5001;51.674;7.868;2023-02-28T00:48:40;43.03;;;11.07;;
9924;SDS011;5001;51.674;7.868;2023-02-28T00:51:07;53.20;;;12.47;;
9924;SDS011;5001;51.674;7.868;2023-02-28T00:53:34;84.87;;;21.90;;
9924;SDS011;5001;51.674;7.868;2023-02-28T00:56:01;50.57;;;13.87;;
9924;SDS011;5001;51.674;7.868;2023-02-28T00:58:29;107.77;;;30.63;;
9924;SDS011;5001;51.674;7.868;2023-02-28T01:00:56;150.33;;;42.50;;
9924;SDS011;5001;51.674;7.868;2023-02-28T01:03:23;186.90;;;49.57;;
9924;SDS011;5001;51.674;7.868;2023-02-28T01:05:50;127.70;;;37.53;;
9924;SDS011;5001;51.674;7.868;2023-02-28T01:08:19;92.37;;;26.80;;
9924;SDS011;5001;51.674;7.868;2023-02-28T01:10:46;11.40;;;4.97;;
9924;SDS011;5001;51.674;7.868;2023-02-28T01:13:14;4.30;;;2.30;;
9924;SDS011;5001;51.674;7.868;2023-02-28T01:15:46;14.13;;;3.70;;
9924;SDS011;5001;51.674;7.868;2023-02-28T01:18:19;5.90;;;3.30;;
9924;SDS011;5001;51.674;7.868;2023-02-28T01:20:47;2.27;;;2.00;;
9924;SDS011;5001;51.674;7.868;2023-02-28T01:23:15;3.17;;;2.00;;
9924;SDS011;5001;51.674;7.868;2023-02-28T01:25:42;3.10;;;1.90;;
9924;SDS011;5001;51.674;7.868;2023-02-28T01:28:09;3.33;;;1.87;;
9924;SDS011;5001;51.674;7.868;2023-02-28T01:30:36;6.10;;;2.10;;
9924;SDS011;5001;51.674;7.868;2023-02-28T01:33:04;2.93;;;1.90;;
9924;SDS011;5001;51.674;7.868;2023-02-28T01:35:32;3.13;;;2.17;;
9924;SDS011;5001;51.674;7.868;2023-02-28T01:38:00;3.30;;;1.80;;
9924;SDS011;5001;51.674;7.868;2023-02-28T01:40:46;5.60;;;2.30;;
9924;SDS011;5001;51.674;7.868;2023-02-28T01:43:20;4.50;;;2.17;;
9924;SDS011;5001;51.674;7.868;2023-02-28T01:45:49;3.20;;;2.10;;
9924;SDS011;5001;51.674;7.868;2023-02-28T01:48:18;6.40;;;3.00;;
9924;SDS011;5001;51.674;7.868;2023-02-28T01:50:47;10.20;;;3.77;;
9924;SDS011;5001;51.674;7.868;2023-02-28T01:53:19;5.53;;;2.60;;
9924;SDS011;5001;51.674;7.868;2023-02-28T01:55:52;8.03;;;2.77;;
9924;SDS011;5001;51.674;7.868;2023-02-28T01:58:20;58.17;;;18.03;;
9924;SDS011;5001;51.674;7.868;2023-02-28T02:00:47;29.67;;;10.23;;
9924;SDS011;5001;51.674;7.868;2023-02-28T02:03:15;31.37;;;10.40;;
9924;SDS011;5001;51.674;7.868;2023-02-28T02:05:45;33.10;;;12.73;;
9924;SDS011;5001;51.674;7.868;2023-02-28T02:08:16;65.17;;;25.23;;
9924;SDS011;5001;51.674;7.868;2023-02-28T02:10:49;24.20;;;10.73;;
9924;SDS011;5001;51.674;7.868;2023-02-28T02:30:17;30.83;;;12.27;;
9924;SDS011;5001;51.674;7.868;2023-02-28T02:35:47;44.57;;;16.53;;
9924;SDS011;5001;51.674;7.868;2023-02-28T02:43:38;11.53;;;4.77;;
9924;SDS011;5001;51.674;7.868;2023-02-28T02:48:45;74.53;;;21.53;;
9924;SDS011;5001;51.674;7.868;2023-02-28T02:51:14;70.47;;;20.47;;
9924;SDS011;5001;51.674;7.868;2023-02-28T02:53:48;40.90;;;14.23;;
9924;SDS011;5001;51.674;7.868;2023-02-28T02:56:23;42.87;;;15.00;;
9924;SDS011;5001;51.674;7.868;2023-02-28T02:58:55;12.93;;;6.30;;
9924;SDS011;5001;51.674;7.868;2023-02-28T03:01:27;24.90;;;9.60;;
9924;SDS011;5001;51.674;7.868;2023-02-28T03:03:58;14.93;;;6.43;;
9924;SDS011;5001;51.674;7.868;2023-02-28T03:06:30;17.80;;;7.67;;
9924;SDS011;5001;51.674;7.868;2023-02-28T03:08:57;16.23;;;6.80;;
9924;SDS011;5001;51.674;7.868;2023-02-28T03:11:25;35.33;;;11.87;;
9924;SDS011;5001;51.674;7.868;2023-02-28T03:21:46;27.53;;;8.90;;
9924;SDS011;5001;51.674;7.868;2023-02-28T03:24:27;10.37;;;4.20;;
9924;SDS011;5001;51.674;7.868;2023-02-28T03:30:24;63.67;;;20.77;;
9924;SDS011;5001;51.674;7.868;2023-02-28T03:33:03;36.23;;;12.40;;
9924;SDS011;5001;51.674;7.868;2023-02-28T03:35:42;28.47;;;10.17;;
9924;SDS011;5001;51.674;7.868;2023-02-28T03:38:16;31.47;;;11.83;;
9924;SDS011;5001;51.674;7.868;2023-02-28T03:40:49;30.07;;;11.97;;
9924;SDS011;5001;51.674;7.868;2023-02-28T03:43:23;40.57;;;15.87;;
9924;SDS011;5001;51.674;7.868;2023-02-28T03:45:54;33.90;;;14.27;;
9924;SDS011;5001;51.674;7.868;2023-02-28T03:48:23;17.13;;;7.37;;
9924;SDS011;5001;51.674;7.868;2023-02-28T03:50:58;52.00;;;19.87;;
9924;SDS011;5001;51.674;7.868;2023-02-28T03:53:29;33.97;;;11.93;;
9924;SDS011;5001;51.674;7.868;2023-02-28T04:01:42;40.53;;;14.37;;
9924;SDS011;5001;51.674;7.868;2023-02-28T04:04:12;72.87;;;23.07;;
9924;SDS011;5001;51.674;7.868;2023-02-28T04:06:40;49.20;;;15.53;;
9924;SDS011;5001;51.674;7.868;2023-02-28T04:09:10;11.33;;;5.33;;
9924;SDS011;5001;51.674;7.868;2023-02-28T04:11:42;15.57;;;5.80;;
9924;SDS011;5001;51.674;7.868;2023-02-28T04:14:11;21.70;;;7.50;;
9924;SDS011;5001;51.674;7.868;2023-02-28T04:16:40;32.50;;;11.23;;
9924;SDS011;5001;51.674;7.868;2023-02-28T04:19:08;47.83;;;14.23;;
9924;SDS011;5001;51.674;7.868;2023-02-28T04:21:57;80.97;;;23.23;;
9924;SDS011;5001;51.674;7.868;2023-02-28T04:24:24;82.70;;;23.73;;
9924;SDS011;5001;51.674;7.868;2023-02-28T04:26:54;62.70;;;19.53;;
9924;SDS011;5001;51.674;7.868;2023-02-28T04:29:25;47.30;;;15.20;;
9924;SDS011;5001;51.674;7.868;2023-02-28T04:31:55;37.80;;;14.13;;
9924;SDS011;5001;51.674;7.868;2023-02-28T04:34:26;43.80;;;14.33;;
9924;SDS011;5001;51.674;7.868;2023-02-28T04:36:54;31.27;;;11.07;;
9924;SDS011;5001;51.674;7.868;2023-02-28T04:39:37;12.80;;;5.67;;
9924;SDS011;5001;51.674;7.868;2023-02-28T04:42:04;17.23;;;7.23;;
9924;SDS011;5001;51.674;7.868;2023-02-28T04:44:31;12.30;;;6.13;;
9924;SDS011;5001;51.674;7.868;2023-02-28T04:46:58;7.53;;;3.57;;
9924;SDS011;5001;51.674;7.868;2023-02-28T04:49:25;8.10;;;3.43;;
9924;SDS011;5001;51.674;7.868;2023-02-28T04:51:52;5.20;;;3.00;;
9924;SDS011;5001;51.674;7.868;2023-02-28T04:54:19;5.77;;;3.53;;
9924;SDS011;5001;51.674;7.868;2023-02-28T04:56:46;24.23;;;9.03;;
9924;SDS011;5001;51.674;7.868;2023-02-28T04:59:16;8.97;;;4.77;;
9924;SDS011;5001;51.674;7.868;2023-02-28T05:01:47;8.03;;;4.27;;
9924;SDS011;5001;51.674;7.868;2023-02-28T05:04:14;10.43;;;4.70;;
9924;SDS011;5001;51.674;7.868;2023-02-28T05:06:41;5.67;;;4.13;;
9924;SDS011;5001;51.674;7.868;2023-02-28T05:09:09;14.43;;;6.17;;
9924;SDS011;5001;51.674;7.868;2023-02-28T05:11:38;13.23;;;6.13;;
9924;SDS011;5001;51.674;7.868;2023-02-28T05:14:06;6.90;;;4.30;;
9924;SDS011;5001;51.674;7.868;2023-02-28T05:16:37;5.10;;;3.53;;
9924;SDS011;5001;51.674;7.868;2023-02-28T05:19:04;6.60;;;3.90;;
9924;SDS011;5001;51.674;7.868;2023-02-28T05:24:00;7.33;;;5.13;;
9924;SDS011;5001;51.674;7.868;2023-02-28T05:26:29;11.77;;;5.80;;
9924;SDS011;5001;51.674;7.868;2023-02-28T05:28:57;8.77;;;5.30;;
9924;SDS011;5001;51.674;7.868;2023-02-28T05:31:24;9.80;;;5.50;;
9924;SDS011;5001;51.674;7.868;2023-02-28T05:33:51;10.37;;;6.00;;
9924;SDS011;5001;51.674;7.868;2023-02-28T05:36:18;11.40;;;5.90;;
9924;SDS011;5001;51.674;7.868;2023-02-28T05:38:49;12.63;;;5.50;;
9924;SDS011;5001;51.674;7.868;2023-02-28T05:41:17;10.43;;;5.37;;
9924;SDS011;5001;51.674;7.868;2023-02-28T05:43:48;7.60;;;4.50;;
9924;SDS011;5001;51.674;7.868;2023-02-28T05:46:15;13.30;;;7.27;;
9924;SDS011;5001;51.674;7.868;2023-02-28T05:48:43;12.13;;;7.23;;
9924;SDS011;5001;51.674;7.868;2023-02-28T05:51:13;13.17;;;7.33;;
9924;SDS011;5001;51.674;7.868;2023-02-28T05:53:41;10.83;;;5.30;;
9924;SDS011;5001;51.674;7.868;2023-02-28T05:56:08;132.03;;;31.20;;
9924;SDS011;5001;51.674;7.868;2023-02-28T05:58:35;56.73;;;17.90;;
9924;SDS011;5001;51.674;7.868;2023-02-28T06:01:18;22.43;;;8.80;;
9924;SDS011;5001;51.674;7.868;2023-02-28T06:03:50;23.00;;;9.10;;
9924;SDS011;5001;51.674;7.868;2023-02-28T06:06:19;24.90;;;12.10;;
9924;SDS011;5001;51.674;7.868;2023-02-28T06:08:46;25.23;;;9.10;;
9924;SDS011;5001;51.674;7.868;2023-02-28T06:11:13;16.77;;;8.13;;
9924;SDS011;5001;51.674;7.868;2023-02-28T06:13:40;14.23;;;6.83;;
9924;SDS011;5001;51.674;7.868;2023-02-28T06:16:09;13.67;;;6.63;;
9924;SDS011;5001;51.674;7.868;2023-02-28T06:18:37;14.87;;;6.90;;
9924;SDS011;5001;51.674;7.868;2023-02-28T06:21:05;11.00;;;6.60;;
9924;SDS011;5001;51.674;7.868;2023-02-28T06:23:32;12.43;;;6.67;;
9924;SDS011;5001;51.674;7.868;2023-02-28T06:25:58;15.90;;;7.20;;
9924;SDS011;5001;51.674;7.868;2023-02-28T06:28:26;10.00;;;5.50;;
9924;SDS011;5001;51.674;7.868;2023-02-28T06:30:53;9.20;;;6.13;;
9924;SDS011;5001;51.674;7.868;2023-02-28T06:33:20;9.40;;;6.00;;
9924;SDS011;5001;51.674;7.868;2023-02-28T06:35:49;9.13;;;5.77;;
9924;SDS011;5001;51.674;7.868;2023-02-28T06:38:17;15.43;;;6.87;;
9924;SDS011;5001;51.674;7.868;2023-02-28T06:40:44;24.23;;;10.73;;
9924;SDS011;5001;51.674;7.868;2023-02-28T06:43:18;40.43;;;16.23;;
9924;SDS011;5001;51.674;7.868;2023-02-28T06:45:45;24.33;;;10.77;;
9924;SDS011;5001;51.674;7.868;2023-02-28T06:48:12;21.40;;;9.00;;
9924;SDS011;5001;51.674;7.868;2023-02-28T06:50:39;13.23;;;7.77;;
9924;SDS011;5001;51.674;7.868;2023-02-28T06:53:06;17.57;;;8.63;;
9924;SDS011;5001;51.674;7.868;2023-02-28T06:55:33;20.20;;;8.57;;
9924;SDS011;5001;51.674;7.868;2023-02-28T06:58:00;13.37;;;7.87;;
9924;SDS011;5001;51.674;7.868;2023-02-28T07:00:27;12.23;;;8.20;;
9924;SDS011;5001;51.674;7.868;2023-02-28T07:02:54;17.00;;;8.20;;
9924;SDS011;5001;51.674;7.868;2023-02-28T07:05:21;17.67;;;9.60;;
9924;SDS011;5001;51.674;7.868;2023-02-28T07:07:48;12.13;;;8.33;;
9924;SDS011;5001;51.674;7.868;2023-02-28T07:10:15;7.47;;;5.40;;
9924;SDS011;5001;51.674;7.868;2023-02-28T07:12:45;5.43;;;3.93;;
9924;SDS011;5001;51.674;7.868;2023-02-28T07:15:12;10.33;;;7.37;;
9924;SDS011;5001;51.674;7.868;2023-02-28T07:17:39;77.33;;;38.57;;
9924;SDS011;5001;51.674;7.868;2023-02-28T07:20:06;40.50;;;22.90;;
9924;SDS011;5001;51.674;7.868;2023-02-28T07:22:34;31.50;;;16.63;;
9924;SDS011;5001;51.674;7.868;2023-02-28T07:25:01;14.43;;;8.27;;
9924;SDS011;5001;51.674;7.868;2023-02-28T07:27:28;9.77;;;6.77;;
9924;SDS011;5001;51.674;7.868;2023-02-28T07:29:55;6.57;;;4.73;;
9924;SDS011;5001;51.674;7.868;2023-02-28T07:32:22;4.77;;;3.60;;
9924;SDS011;5001;51.674;7.868;2023-02-28T07:34:50;7.40;;;5.13;;
9924;SDS011;5001;51.674;7.868;2023-02-28T07:37:17;7.03;;;3.63;;
9924;SDS011;5001;51.674;7.868;2023-02-28T07:39:44;6.50;;;3.80;;
9924;SDS011;5001;51.674;7.868;2023-02-28T07:42:11;9.93;;;3.93;;
9924;SDS011;5001;51.674;7.868;2023-02-28T07:44:39;6.27;;;4.03;;
9924;SDS011;5001;51.674;7.868;2023-02-28T07:47:07;7.83;;;4.00;;
9924;SDS011;5001;51.674;7.868;2023-02-28T07:49:36;4.83;;;3.57;;
9924;SDS011;5001;51.674;7.868;2023-02-28T07:52:03;6.17;;;4.13;;
9924;SDS011;5001;51.674;7.868;2023-02-28T07:54:32;6.60;;;3.17;;
9924;SDS011;5001;51.674;7.868;2023-02-28T07:56:59;7.43;;;3.50;;
9924;SDS011;5001;51.674;7.868;2023-02-28T07:59:26;9.57;;;4.30;;
9924;SDS011;5001;51.674;7.868;2023-02-28T08:01:56;7.10;;;4.53;;
9924;SDS011;5001;51.674;7.868;2023-02-28T08:04:23;12.73;;;5.23;;
9924;SDS011;5001;51.674;7.868;2023-02-28T08:06:51;9.67;;;4.47;;
9924;SDS011;5001;51.674;7.868;2023-02-28T08:09:22;8.37;;;4.10;;
9924;SDS011;5001;51.674;7.868;2023-02-28T08:11:49;6.70;;;3.73;;
9924;SDS011;5001;51.674;7.868;2023-02-28T08:14:16;6.30;;;3.30;;
9924;SDS011;5001;51.674;7.868;2023-02-28T08:16:44;6.17;;;3.37;;
9924;SDS011;5001;51.674;7.868;2023-02-28T08:19:10;7.80;;;3.93;;
9924;SDS011;5001;51.674;7.868;2023-02-28T08:21:37;5.47;;;3.17;;
9924;SDS011;5001;51.674;7.868;2023-02-28T08:24:04;9.50;;;4.10;;
9924;SDS011;5001;51.674;7.868;2023-02-28T08:26:32;5.60;;;3.37;;
9924;SDS011;5001;51.674;7.868;2023-02-28T08:28:59;5.57;;;3.90;;
9924;SDS011;5001;51.674;7.868;2023-02-28T08:31:27;7.47;;;3.60;;
9924;SDS011;5001;51.674;7.868;2023-02-28T08:33:54;6.67;;;4.00;;
9924;SDS011;5001;51.674;7.868;2023-02-28T08:36:25;5.17;;;3.10;;
9924;SDS011;5001;51.674;7.868;2023-02-28T08:38:55;8.20;;;3.53;;
9924;SDS011;5001;51.674;7.868;2023-02-28T08:41:23;4.37;;;2.90;;
9924;SDS011;5001;51.674;7.868;2023-02-28T08:43:50;5.07;;;3.13;;
9924;SDS011;5001;51.674;7.868;2023-02-28T08:46:17;6.03;;;3.33;;
9924;SDS011;5001;51.674;7.868;2023-02-28T08:48:44;4.90;;;3.43;;
9924;SDS011;5001;51.674;7.868;2023-02-28T08:51:12;6.43;;;3.50;;
9924;SDS011;5001;51.674;7.868;2023-02-28T08:53:44;5.07;;;3.13;;
9924;SDS011;5001;51.674;7.868;2023-02-28T08:56:12;9.50;;;5.13;;
9924;SDS011;5001;51.674;7.868;2023-02-28T08:58:43;29.23;;;8.50;;
9924;SDS011;5001;51.674;7.868;2023-02-28T09:01:12;7.20;;;2.87;;
9924;SDS011;5001;51.674;7.868;2023-02-28T09:03:41;5.97;;;2.80;;
9924;SDS011;5001;51.674;7.868;2023-02-28T09:06:09;3.90;;;2.30;;
9924;SDS011;5001;51.674;7.868;2023-02-28T09:08:36;5.40;;;2.40;;
9924;SDS011;5001;51.674;7.868;2023-02-28T09:11:03;5.80;;;3.03;;
9924;SDS011;5001;51.674;7.868;2023-02-28T09:13:31;4.77;;;2.70;;
9924;SDS011;5001;51.674;7.868;2023-02-28T09:15:59;4.10;;;2.20;;
9924;SDS011;5001;51.674;7.868;2023-02-28T09:18:28;5.17;;;2.90;;
9924;SDS011;5001;51.674;7.868;2023-02-28T09:20:55;3.77;;;2.40;;
9924;SDS011;5001;51.674;7.868;2023-02-28T09:23:24;2.13;;;1.60;;
9924;SDS011;5001;51.674;7.868;2023-02-28T09:25:51;4.63;;;1.80;;
9924;SDS011;5001;51.674;7.868;2023-02-28T09:28:20;4.75;;;1.98;;
9924;SDS011;5001;51.674;7.868;2023-02-28T09:30:49;9.73;;;4.00;;
9924;SDS011;5001;51.674;7.868;2023-02-28T09:33:18;3.87;;;2.20;;
9924;SDS011;5001;51.674;7.868;2023-02-28T09:35:47;3.40;;;2.00;;
9924;SDS011;5001;51.674;7.868;2023-02-28T09:38:15;3.77;;;2.23;;
9924;SDS011;5001;51.674;7.868;2023-02-28T09:43:25;2.33;;;2.00;;
9924;SDS011;5001;51.674;7.868;2023-02-28T09:46:03;5.83;;;2.00;;
9924;SDS011;5001;51.674;7.868;2023-02-28T09:48:52;3.23;;;2.00;;
9924;SDS011;5001;51.674;7.868;2023-02-28T09:51:27;3.70;;;1.80;;
9924;SDS011;5001;51.674;7.868;2023-02-28T09:53:57;3.23;;;1.90;;
9924;SDS011;5001;51.674;7.868;2023-02-28T09:56:31;4.37;;;2.03;;
9924;SDS011;5001;51.674;7.868;2023-02-28T10:04:41;2.50;;;2.13;;
9924;SDS011;5001;51.674;7.868;2023-02-28T10:10:57;2.63;;;1.87;;
9924;SDS011;5001;51.674;7.868;2023-02-28T10:16:18;3.55;;;2.08;;
9924;SDS011;5001;51.674;7.868;2023-02-28T10:21:55;2.33;;;1.70;;
9924;SDS011;5001;51.674;7.868;2023-02-28T10:24:30;2.00;;;1.70;;
9924;SDS011;5001;51.674;7.868;2023-02-28T10:27:05;2.95;;;2.00;;
9924;SDS011;5001;51.674;7.868;2023-02-28T10:29:45;1.50;;;1.40;;
9924;SDS011;5001;51.674;7.868;2023-02-28T10:32:16;3.00;;;1.87;;
9924;SDS011;5001;51.674;7.868;2023-02-28T10:34:52;2.67;;;1.90;;
9924;SDS011;5001;51.674;7.868;2023-02-28T10:37:43;2.63;;;1.95;;
9924;SDS011;5001;51.674;7.868;2023-02-28T10:45:29;2.47;;;2.03;;
9924;SDS011;5001;51.674;7.868;2023-02-28T10:48:22;2.25;;;2.05;;
9924;SDS011;5001;51.674;7.868;2023-02-28T10:50:58;2.40;;;1.73;;
9924;SDS011;5001;51.674;7.868;2023-02-28T10:53:33;4.13;;;2.70;;
9924;SDS011;5001;51.674;7.868;2023-02-28T10:56:24;3.57;;;2.03;;
9924;SDS011;5001;51.674;7.868;2023-02-28T10:59:33;6.20;;;2.90;;
9924;SDS011;5001;51.674;7.868;2023-02-28T11:01:41;4.20;;;2.13;;
9924;SDS011;5001;51.674;7.868;2023-02-28T11:04:16;2.87;;;2.33;;
9924;SDS011;5001;51.674;7.868;2023-02-28T11:06:48;5.90;;;3.50;;
9924;SDS011;5001;51.674;7.868;2023-02-28T11:09:28;3.60;;;2.60;;
9924;SDS011;5001;51.674;7.868;2023-02-28T11:12:10;4.80;;;3.03;;
9924;SDS011;5001;51.674;7.868;2023-02-28T11:14:58;4.73;;;3.00;;
9924;SDS011;5001;51.674;7.868;2023-02-28T11:17:29;4.37;;;2.53;;
9924;SDS011;5001;51.674;7.868;2023-02-28T11:19:59;4.87;;;2.80;;
9924;SDS011;5001;51.674;7.868;2023-02-28T11:22:35;6.10;;;3.47;;
9924;SDS011;5001;51.674;7.868;2023-02-28T11:25:48;4.73;;;2.73;;
9924;SDS011;5001;51.674;7.868;2023-02-28T11:27:58;7.07;;;4.20;;
9924;SDS011;5001;51.674;7.868;2023-02-28T11:32:57;4.93;;;2.60;;
9924;SDS011;5001;51.674;7.868;2023-02-28T11:35:34;3.50;;;2.77;;
9924;SDS011;5001;51.674;7.868;2023-02-28T11:38:05;10.37;;;3.73;;
9924;SDS011;5001;51.674;7.868;2023-02-28T11:40:43;3.50;;;2.53;;
9924;SDS011;5001;51.674;7.868;2023-02-28T11:43:30;6.03;;;3.63;;
9924;SDS011;5001;51.674;7.868;2023-02-28T11:46:07;2.40;;;1.93;;
9924;SDS011;5001;51.674;7.868;2023-02-28T11:48:52;5.43;;;2.27;;
9924;SDS011;5001;51.674;7.868;2023-02-28T11:51:38;2.83;;;2.07;;
9924;SDS011;5001;51.674;7.868;2023-02-28T12:00:40;2.87;;;1.80;;
9924;SDS011;5001;51.674;7.868;2023-02-28T12:20:05;3.93;;;2.67;;
9924;SDS011;5001;51.674;7.868;2023-02-28T12:28:13;2.60;;;2.30;;
9924;SDS011;5001;51.674;7.868;2023-02-28T12:31:04;3.37;;;2.30;;
9924;SDS011;5001;51.674;7.868;2023-02-28T12:33:36;3.20;;;2.57;;
9924;SDS011;5001;51.674;7.868;2023-02-28T12:36:13;6.00;;;3.30;;
9924;SDS011;5001;51.674;7.868;2023-02-28T12:38:47;5.27;;;2.97;;
9924;SDS011;5001;51.674;7.868;2023-02-28T12:47:00;4.80;;;2.70;;
9924;SDS011;5001;51.674;7.868;2023-02-28T12:49:32;3.40;;;3.10;;
9924;SDS011;5001;51.674;7.868;2023-02-28T12:52:10;2.97;;;2.70;;
9924;SDS011;5001;51.674;7.868;2023-02-28T12:54:52;2.67;;;2.47;;
9924;SDS011;5001;51.674;7.868;2023-02-28T12:57:31;4.23;;;2.60;;
9924;SDS011;5001;51.674;7.868;2023-02-28T13:00:10;3.10;;;2.40;;
9924;SDS011;5001;51.674;7.868;2023-02-28T13:10:16;3.13;;;2.47;;
9924;SDS011;5001;51.674;7.868;2023-02-28T13:12:49;3.07;;;2.70;;
9924;SDS011;5001;51.674;7.868;2023-02-28T13:15:18;4.07;;;2.60;;
9924;SDS011;5001;51.674;7.868;2023-02-28T13:17:52;3.07;;;2.77;;
9924;SDS011;5001;51.674;7.868;2023-02-28T13:20:34;3.10;;;2.70;;
9924;SDS011;5001;51.674;7.868;2023-02-28T13:23:03;2.87;;;2.60;;
9924;SDS011;5001;51.674;7.868;2023-02-28T13:25:51;4.50;;;2.63;;
9924;SDS011;5001;51.674;7.868;2023-02-28T13:31:19;5.47;;;2.97;;
9924;SDS011;5001;51.674;7.868;2023-02-28T13:38:44;6.63;;;2.87;;
9924;SDS011;5001;51.674;7.868;2023-02-28T13:51:49;4.43;;;2.63;;
9924;SDS011;5001;51.674;7.868;2023-02-28T13:57:17;4.67;;;3.10;;
9924;SDS011;5001;51.674;7.868;2023-02-28T14:05:41;4.77;;;3.23;;
9924;SDS011;5001;51.674;7.868;2023-02-28T14:08:18;7.23;;;3.37;;
9924;SDS011;5001;51.674;7.868;2023-02-28T14:10:49;4.40;;;3.30;;
9924;SDS011;5001;51.674;7.868;2023-02-28T14:13:36;6.30;;;3.37;;
9924;SDS011;5001;51.674;7.868;2023-02-28T14:16:14;5.93;;;3.50;;
9924;SDS011;5001;51.674;7.868;2023-02-28T14:18:51;5.50;;;3.00;;
9924;SDS011;5001;51.674;7.868;2023-02-28T14:21:31;3.90;;;3.10;;
9924;SDS011;5001;51.674;7.868;2023-02-28T14:27:12;3.77;;;2.97;;
9924;SDS011;5001;51.674;7.868;2023-02-28T14:37:48;4.90;;;3.17;;
9924;SDS011;5001;51.674;7.868;2023-02-28T14:40:17;3.10;;;2.70;;
9924;SDS011;5001;51.674;7.868;2023-02-28T14:42:47;2.90;;;2.70;;
9924;SDS011;5001;51.674;7.868;2023-02-28T14:45:22;3.63;;;3.10;;
9924;SDS011;5001;51.674;7.868;2023-02-28T14:47:50;5.27;;;3.47;;
9924;SDS011;5001;51.674;7.868;2023-02-28T14:50:19;4.87;;;3.17;;
9924;SDS011;5001;51.674;7.868;2023-02-28T14:52:49;4.23;;;3.30;;
9924;SDS011;5001;51.674;7.868;2023-02-28T14:55:19;3.87;;;2.73;;
9924;SDS011;5001;51.674;7.868;2023-02-28T14:58:01;3.20;;;2.37;;
9924;SDS011;5001;51.674;7.868;2023-02-28T15:00:36;5.63;;;2.80;;
9924;SDS011;5001;51.674;7.868;2023-02-28T15:05:56;3.53;;;2.60;;
9924;SDS011;5001;51.674;7.868;2023-02-28T15:08:25;4.13;;;2.40;;
9924;SDS011;5001;51.674;7.868;2023-02-28T15:10:59;4.50;;;2.70;;
9924;SDS011;5001;51.674;7.868;2023-02-28T15:21:20;5.97;;;2.70;;
9924;SDS011;5001;51.674;7.868;2023-02-28T15:23:52;3.23;;;2.70;;
9924;SDS011;5001;51.674;7.868;2023-02-28T15:26:45;5.20;;;2.90;;
9924;SDS011;5001;51.674;7.868;2023-02-28T15:29:17;5.37;;;2.90;;
9924;SDS011;5001;51.674;7.868;2023-02-28T15:32:00;3.50;;;2.87;;
9924;SDS011;5001;51.674;7.868;2023-02-28T15:34:39;3.87;;;3.30;;
9924;SDS011;5001;51.674;7.868;2023-02-28T15:43:05;4.67;;;3.03;;
9924;SDS011;5001;51.674;7.868;2023-02-28T15:45:46;4.33;;;2.70;;
9924;SDS011;5001;51.674;7.868;2023-02-28T15:50:54;8.43;;;3.53;;
9924;SDS011;5001;51.674;7.868;2023-02-28T15:53:26;5.37;;;2.53;;
9924;SDS011;5001;51.674;7.868;2023-02-28T15:56:22;3.63;;;2.73;;
9924;SDS011;5001;51.674;7.868;2023-02-28T15:58:58;3.50;;;2.50;;
9924;SDS011;5001;51.674;7.868;2023-02-28T16:01:28;6.53;;;2.80;;
9924;SDS011;5001;51.674;7.868;2023-02-28T16:04:02;7.50;;;2.97;;
9924;SDS011;5001;51.674;7.868;2023-02-28T16:09:09;4.80;;;3.97;;
9924;SDS011;5001;51.674;7.868;2023-02-28T16:11:49;5.83;;;4.63;;
9924;SDS011;5001;51.674;7.868;2023-02-28T16:14:20;10.13;;;5.87;;
9924;SDS011;5001;51.674;7.868;2023-02-28T16:16:52;5.13;;;3.77;;
9924;SDS011;5001;51.674;7.868;2023-02-28T16:19:21;5.83;;;4.30;;
9924;SDS011;5001;51.674;7.868;2023-02-28T16:21:49;7.63;;;3.30;;
9924;SDS011;5001;51.674;7.868;2023-02-28T16:24:16;8.80;;;4.00;;
9924;SDS011;5001;51.674;7.868;2023-02-28T16:26:44;8.17;;;3.93;;
9924;SDS011;5001;51.674;7.868;2023-02-28T16:29:24;6.47;;;3.83;;
9924;SDS011;5001;51.674;7.868;2023-02-28T16:31:54;7.53;;;4.00;;
9924;SDS011;5001;51.674;7.868;2023-02-28T16:34:22;5.30;;;3.97;;
9924;SDS011;5001;51.674;7.868;2023-02-28T16:36:52;6.03;;;4.00;;
9924;SDS011;5001;51.674;7.868;2023-02-28T16:39:19;8.03;;;4.40;;
9924;SDS011;5001;51.674;7.868;2023-02-28T16:41:47;12.20;;;5.53;;
9924;SDS011;5001;51.674;7.868;2023-02-28T16:44:29;6.60;;;4.90;;
9924;SDS011;5001;51.674;7.868;2023-02-28T16:47:00;6.37;;;4.47;;
9924;SDS011;5001;51.674;7.868;2023-02-28T16:49:28;8.57;;;4.57;;
9924;SDS011;5001;51.674;7.868;2023-02-28T16:51:55;10.03;;;4.87;;
9924;SDS011;5001;51.674;7.868;2023-02-28T16:54:22;26.53;;;12.50;;
9924;SDS011;5001;51.674;7.868;2023-02-28T16:56:49;10.47;;;6.07;;
9924;SDS011;5001;51.674;7.868;2023-02-28T16:59:18;6.10;;;4.60;;
9924;SDS011;5001;51.674;7.868;2023-02-28T17:01:50;9.80;;;4.10;;
9924;SDS011;5001;51.674;7.868;2023-02-28T17:04:18;5.23;;;4.50;;
9924;SDS011;5001;51.674;7.868;2023-02-28T17:06:45;4.37;;;3.20;;
9924;SDS011;5001;51.674;7.868;2023-02-28T17:09:19;6.40;;;3.87;;
9924;SDS011;5001;51.674;7.868;2023-02-28T17:11:56;6.87;;;4.10;;
9924;SDS011;5001;51.674;7.868;2023-02-28T17:14:23;5.13;;;3.80;;
9924;SDS011;5001;51.674;7.868;2023-02-28T17:16:50;7.53;;;3.60;;
9924;SDS011;5001;51.674;7.868;2023-02-28T17:19:17;9.00;;;4.43;;
9924;SDS011;5001;51.674;7.868;2023-02-28T17:21:44;7.37;;;4.43;;
9924;SDS011;5001;51.674;7.868;2023-02-28T17:24:11;4.80;;;3.50;;
9924;SDS011;5001;51.674;7.868;2023-02-28T17:26:44;7.30;;;4.87;;
9924;SDS011;5001;51.674;7.868;2023-02-28T17:29:15;6.73;;;5.10;;
9924;SDS011;5001;51.674;7.868;2023-02-28T17:31:45;5.57;;;4.70;;
9924;SDS011;5001;51.674;7.868;2023-02-28T17:34:12;15.63;;;12.20;;
9924;SDS011;5001;51.674;7.868;2023-02-28T17:36:45;8.03;;;5.77;;
9924;SDS011;5001;51.674;7.868;2023-02-28T17:39:13;9.87;;;6.43;;
9924;SDS011;5001;51.674;7.868;2023-02-28T17:41:41;20.77;;;13.27;;
9924;SDS011;5001;51.674;7.868;2023-02-28T17:44:08;9.03;;;5.77;;
9924;SDS011;5001;51.674;7.868;2023-02-28T17:46:35;16.87;;;12.13;;
9924;SDS011;5001;51.674;7.868;2023-02-28T17:49:03;12.63;;;7.83;;
9924;SDS011;5001;51.674;7.868;2023-02-28T17:51:30;18.63;;;11.77;;
9924;SDS011;5001;51.674;7.868;2023-02-28T17:53:57;20.60;;;13.83;;
9924;SDS011;5001;51.674;7.868;2023-02-28T17:56:24;16.47;;;11.27;;
9924;SDS011;5001;51.674;7.868;2023-02-28T17:58:53;20.07;;;13.37;;
9924;SDS011;5001;51.674;7.868;2023-02-28T18:01:21;13.30;;;7.10;;
9924;SDS011;5001;51.674;7.868;2023-02-28T18:03:50;12.70;;;7.37;;
9924;SDS011;5001;51.674;7.868;2023-02-28T18:06:22;12.33;;;7.00;;
9924;SDS011;5001;51.674;7.868;2023-02-28T18:08:50;11.77;;;7.17;;
9924;SDS011;5001;51.674;7.868;2023-02-28T18:11:18;14.83;;;7.27;;
9924;SDS011;5001;51.674;7.868;2023-02-28T18:13:49;19.40;;;12.90;;
9924;SDS011;5001;51.674;7.868;2023-02-28T18:16:20;12.03;;;8.30;;
9924;SDS011;5001;51.674;7.868;2023-02-28T18:18:48;14.40;;;8.90;;
9924;SDS011;5001;51.674;7.868;2023-02-28T18:21:15;13.23;;;9.40;;
9924;SDS011;5001;51.674;7.868;2023-02-28T18:23:43;11.70;;;8.13;;
9924;SDS011;5001;51.674;7.868;2023-02-28T18:26:14;18.77;;;9.40;;